createdAt,value
2019-02-21T17:03:49.801Z,9.18
2019-02-21T17:08:53.561Z,8.97
2019-02-21T17:13:57.617Z,8.82
2019-02-21T17:19:03.283Z,8.65
2019-02-21T17:24:08.016Z,8.56
2019-02-21T17:29:11.283Z,8.39
2019-02-21T17:34:15.797Z,8.25
2019-02-21T17:39:19.256Z,8.19
2019-02-21T17:44:23.030Z,8.24
2019-02-21T17:49:26.189Z,8.28
2019-02-21T17:54:29.460Z,8.45
2019-02-21T17:59:35.420Z,8.45
2019-02-21T18:04:38.659Z,8.57
2019-02-21T18:09:41.900Z,8.56
2019-02-21T18:14:45.335Z,8.53
2019-02-21T18:19:50.973Z,8.66
2019-02-21T18:24:54.434Z,8.68
2019-02-21T18:29:58.023Z,8.71
2019-02-21T18:35:01.595Z,8.75
2019-02-21T18:40:16.911Z,8.88
2019-02-21T18:45:12.537Z,9.04
2019-02-21T18:50:15.960Z,9.03
2019-02-21T18:55:22.566Z,9.02
2019-02-21T19:00:26.627Z,8.72
2019-02-21T19:05:35.954Z,8.70
2019-02-21T19:10:36.310Z,8.70
2019-02-21T19:15:40.012Z,8.67
2019-02-21T19:20:43.230Z,8.49
2019-02-21T19:25:47.094Z,8.14
2019-02-21T19:30:55.145Z,8.18
2019-02-21T19:35:58.519Z,8.21
2019-02-21T19:41:04.462Z,8.23
2019-02-21T19:46:08.054Z,8.00
2019-02-21T19:51:11.206Z,8.07
2019-02-21T19:56:15.000Z,7.93
2019-02-21T20:01:18.415Z,7.87
2019-02-21T20:06:21.484Z,7.89
2019-02-21T20:11:24.947Z,7.88
2019-02-21T20:16:28.250Z,7.72
2019-02-21T20:21:31.575Z,7.56
2019-02-21T20:26:34.656Z,7.33
2019-02-21T20:31:37.894Z,7.13
2019-02-21T20:36:50.753Z,6.99
2019-02-21T20:41:46.949Z,6.91
2019-02-21T20:46:50.358Z,6.80
2019-02-21T20:51:53.700Z,6.58
2019-02-21T20:56:57.055Z,6.41
2019-02-21T21:02:00.392Z,6.21
2019-02-21T21:07:04.800Z,6.11
2019-02-21T21:12:07.999Z,6.14
2019-02-21T21:17:12.432Z,6.00
2019-02-21T21:22:17.397Z,5.96
2019-02-21T21:27:20.501Z,5.93
2019-02-21T21:32:23.825Z,5.82
2019-02-21T21:37:27.406Z,5.73
2019-02-21T21:42:30.473Z,5.73
2019-02-21T21:47:33.602Z,5.44
2019-02-21T21:52:36.820Z,5.52
2019-02-21T21:57:40.128Z,5.41
2019-02-21T22:02:43.347Z,5.19
2019-02-21T22:07:49.228Z,5.26
2019-02-21T22:12:52.198Z,5.24
2019-02-21T22:17:55.554Z,5.23
2019-02-21T22:23:02.113Z,5.19
2019-02-21T22:28:05.488Z,4.98
2019-02-21T22:33:08.525Z,4.91
2019-02-21T22:38:11.782Z,4.94
2019-02-21T22:43:15.565Z,4.93
2019-02-21T22:48:19.528Z,4.86
2019-02-21T22:53:22.910Z,4.82
2019-02-21T22:58:26.205Z,4.79
2019-02-21T23:03:47.945Z,4.76
2019-02-21T23:08:52.667Z,4.69
2019-02-21T23:13:56.081Z,4.41
2019-02-21T23:18:59.363Z,4.39
2019-02-21T23:24:03.528Z,4.18
2019-02-21T23:29:08.391Z,4.10
2019-02-21T23:34:17.415Z,4.04
2019-02-21T23:39:20.576Z,4.13
2019-02-21T23:44:23.784Z,4.02
2019-02-21T23:49:26.999Z,3.98
2019-02-21T23:54:30.401Z,3.95
2019-02-21T23:59:33.668Z,3.82
